sensor_id;sensor_type;location;lat;lon;timestamp;temperature;humidity
76269;DHT22;65088;52.352;4.846;2023-02-05T00:01:31;8.60;79.50
76269;DHT22;65088;52.352;4.846;2023-02-05T00:04:00;8.60;79.50
76269;DHT22;65088;52.352;4.846;2023-02-05T00:06:32;8.60;79.50
76269;DHT22;65088;52.352;4.846;2023-02-05T00:09:02;8.60;79.50
76269;DHT22;65088;52.352;4.846;2023-02-05T00:11:31;8.60;79.60
76269;DHT22;65088;52.352;4.846;2023-02-05T00:14:00;8.60;79.60
76269;DHT22;65088;52.352;4.846;2023-02-05T00:16:30;8.60;79.60
76269;DHT22;65088;52.352;4.846;2023-02-05T00:19:02;8.60;79.50
76269;DHT22;65088;52.352;4.846;2023-02-05T00:21:34;8.70;79.50
76269;DHT22;65088;52.352;4.846;2023-02-05T00:24:04;8.70;79.50
76269;DHT22;65088;52.352;4.846;2023-02-05T00:26:33;8.70;79.40
76269;DHT22;65088;52.352;4.846;2023-02-05T00:29:03;8.70;79.40
76269;DHT22;65088;52.352;4.846;2023-02-05T00:31:32;8.70;79.40
76269;DHT22;65088;52.352;4.846;2023-02-05T00:34:02;8.70;79.30
76269;DHT22;65088;52.352;4.846;2023-02-05T00:36:34;8.60;79.30
76269;DHT22;65088;52.352;4.846;2023-02-05T00:39:03;8.60;79.40
76269;DHT22;65088;52.352;4.846;2023-02-05T00:41:34;8.60;79.50
76269;DHT22;65088;52.352;4.846;2023-02-05T00:44:05;8.60;79.60
76269;DHT22;65088;52.352;4.846;2023-02-05T00:46:34;8.60;79.60
76269;DHT22;65088;52.352;4.846;2023-02-05T00:49:04;8.60;79.60
76269;DHT22;65088;52.352;4.846;2023-02-05T00:51:36;8.60;79.60
76269;DHT22;65088;52.352;4.846;2023-02-05T00:54:05;8.60;79.60
76269;DHT22;65088;52.352;4.846;2023-02-05T00:56:35;8.50;79.60
76269;DHT22;65088;52.352;4.846;2023-02-05T00:59:04;8.50;79.70
76269;DHT22;65088;52.352;4.846;2023-02-05T01:01:34;8.50;79.70
76269;DHT22;65088;52.352;4.846;2023-02-05T01:04:03;8.50;79.70
76269;DHT22;65088;52.352;4.846;2023-02-05T01:06:32;8.50;79.70
76269;DHT22;65088;52.352;4.846;2023-02-05T01:09:04;8.50;79.70
76269;DHT22;65088;52.352;4.846;2023-02-05T01:11:34;8.50;79.80
76269;DHT22;65088;52.352;4.846;2023-02-05T01:14:03;8.50;79.70
76269;DHT22;65088;52.352;4.846;2023-02-05T01:16:32;8.50;79.70
76269;DHT22;65088;52.352;4.846;2023-02-05T01:19:01;8.50;79.60
76269;DHT22;65088;52.352;4.846;2023-02-05T01:21:31;8.50;79.50
76269;DHT22;65088;52.352;4.846;2023-02-05T01:24:04;8.50;79.50
76269;DHT22;65088;52.352;4.846;2023-02-05T01:26:33;8.50;79.30
76269;DHT22;65088;52.352;4.846;2023-02-05T01:29:03;8.50;79.00
76269;DHT22;65088;52.352;4.846;2023-02-05T01:31:33;8.50;79.00
76269;DHT22;65088;52.352;4.846;2023-02-05T01:34:02;8.50;78.60
76269;DHT22;65088;52.352;4.846;2023-02-05T01:36:32;8.50;78.60
76269;DHT22;65088;52.352;4.846;2023-02-05T01:39:04;8.50;78.40
76269;DHT22;65088;52.352;4.846;2023-02-05T01:41:34;8.50;78.00
76269;DHT22;65088;52.352;4.846;2023-02-05T01:44:04;8.50;77.90
76269;DHT22;65088;52.352;4.846;2023-02-05T01:46:35;8.50;77.90
76269;DHT22;65088;52.352;4.846;2023-02-05T01:49:07;8.50;77.90
76269;DHT22;65088;52.352;4.846;2023-02-05T01:51:38;8.50;77.60
76269;DHT22;65088;52.352;4.846;2023-02-05T01:54:14;8.50;77.50
76269;DHT22;65088;52.352;4.846;2023-02-05T01:56:45;8.50;77.40
76269;DHT22;65088;52.352;4.846;2023-02-05T01:59:19;8.50;77.40
76269;DHT22;65088;52.352;4.846;2023-02-05T02:01:49;8.40;77.30
76269;DHT22;65088;52.352;4.846;2023-02-05T02:04:29;8.40;77.30
76269;DHT22;65088;52.352;4.846;2023-02-05T02:07:01;8.40;77.20
76269;DHT22;65088;52.352;4.846;2023-02-05T02:09:33;8.30;77.30
76269;DHT22;65088;52.352;4.846;2023-02-05T02:12:04;8.30;77.20
76269;DHT22;65088;52.352;4.846;2023-02-05T02:14:34;8.20;77.10
76269;DHT22;65088;52.352;4.846;2023-02-05T02:17:08;8.10;77.20
76269;DHT22;65088;52.352;4.846;2023-02-05T02:19:43;8.00;77.30
76269;DHT22;65088;52.352;4.846;2023-02-05T02:22:30;7.90;77.60
76269;DHT22;65088;52.352;4.846;2023-02-05T02:25:24;7.90;77.70
76269;DHT22;65088;52.352;4.846;2023-02-05T02:28:03;8.00;77.70
76269;DHT22;65088;52.352;4.846;2023-02-05T02:30:38;8.00;77.70
76269;DHT22;65088;52.352;4.846;2023-02-05T02:33:14;8.10;77.70
76269;DHT22;65088;52.352;4.846;2023-02-05T02:35:49;8.10;77.60
76269;DHT22;65088;52.352;4.846;2023-02-05T02:38:24;8.20;77.50
76269;DHT22;65088;52.352;4.846;2023-02-05T02:41:02;8.20;77.40
76269;DHT22;65088;52.352;4.846;2023-02-05T02:43:40;8.30;77.20
76269;DHT22;65088;52.352;4.846;2023-02-05T02:46:20;8.30;77.20
76269;DHT22;65088;52.352;4.846;2023-02-05T02:48:51;8.30;77.10
76269;DHT22;65088;52.352;4.846;2023-02-05T02:51:24;8.30;77.00
76269;DHT22;65088;52.352;4.846;2023-02-05T02:53:56;8.30;77.00
76269;DHT22;65088;52.352;4.846;2023-02-05T02:56:27;8.30;77.00
76269;DHT22;65088;52.352;4.846;2023-02-05T02:59:03;8.30;76.90
76269;DHT22;65088;52.352;4.846;2023-02-05T03:01:39;8.30;76.80
76269;DHT22;65088;52.352;4.846;2023-02-05T03:04:13;8.30;76.70
76269;DHT22;65088;52.352;4.846;2023-02-05T03:06:47;8.20;76.80
76269;DHT22;65088;52.352;4.846;2023-02-05T03:09:23;8.10;77.00
76269;DHT22;65088;52.352;4.846;2023-02-05T03:11:55;8.00;77.30
76269;DHT22;65088;52.352;4.846;2023-02-05T03:14:27;7.90;77.90
76269;DHT22;65088;52.352;4.846;2023-02-05T03:16:58;7.80;78.10
76269;DHT22;65088;52.352;4.846;2023-02-05T03:19:29;7.80;78.40
76269;DHT22;65088;52.352;4.846;2023-02-05T03:22:02;7.80;78.60
76269;DHT22;65088;52.352;4.846;2023-02-05T03:24:32;7.70;79.00
76269;DHT22;65088;52.352;4.846;2023-02-05T03:27:02;7.70;79.20
76269;DHT22;65088;52.352;4.846;2023-02-05T03:29:36;7.70;79.60
76269;DHT22;65088;52.352;4.846;2023-02-05T03:32:23;7.70;79.70
76269;DHT22;65088;52.352;4.846;2023-02-05T03:35:07;7.70;79.80
76269;DHT22;65088;52.352;4.846;2023-02-05T03:37:49;7.70;79.90
76269;DHT22;65088;52.352;4.846;2023-02-05T03:40:25;7.70;80.30
76269;DHT22;65088;52.352;4.846;2023-02-05T03:43:02;7.70;80.50
76269;DHT22;65088;52.352;4.846;2023-02-05T03:45:44;7.70;80.70
76269;DHT22;65088;52.352;4.846;2023-02-05T03:48:34;7.70;80.80
76269;DHT22;65088;52.352;4.846;2023-02-05T03:51:21;7.80;80.90
76269;DHT22;65088;52.352;4.846;2023-02-05T03:54:02;7.70;81.10
76269;DHT22;65088;52.352;4.846;2023-02-05T03:56:38;7.80;81.10
76269;DHT22;65088;52.352;4.846;2023-02-05T03:59:13;7.80;81.30
76269;DHT22;65088;52.352;4.846;2023-02-05T04:01:47;7.80;81.40
76269;DHT22;65088;52.352;4.846;2023-02-05T04:04:17;7.80;81.50
76269;DHT22;65088;52.352;4.846;2023-02-05T04:06:48;7.80;81.60
76269;DHT22;65088;52.352;4.846;2023-02-05T04:09:19;7.80;81.70
76269;DHT22;65088;52.352;4.846;2023-02-05T04:11:49;7.80;81.90
76269;DHT22;65088;52.352;4.846;2023-02-05T04:14:20;7.80;81.90
76269;DHT22;65088;52.352;4.846;2023-02-05T04:16:53;7.80;82.00
76269;DHT22;65088;52.352;4.846;2023-02-05T04:19:24;7.80;82.00
76269;DHT22;65088;52.352;4.846;2023-02-05T04:21:56;7.80;82.10
76269;DHT22;65088;52.352;4.846;2023-02-05T04:24:25;7.80;82.10
76269;DHT22;65088;52.352;4.846;2023-02-05T04:26:55;7.80;82.20
76269;DHT22;65088;52.352;4.846;2023-02-05T04:29:25;7.70;82.20
76269;DHT22;65088;52.352;4.846;2023-02-05T04:31:58;7.70;82.20
76269;DHT22;65088;52.352;4.846;2023-02-05T04:34:28;7.60;82.20
76269;DHT22;65088;52.352;4.846;2023-02-05T04:36:59;7.60;82.50
76269;DHT22;65088;52.352;4.846;2023-02-05T04:39:29;7.60;82.50
76269;DHT22;65088;52.352;4.846;2023-02-05T04:41:58;7.60;82.60
76269;DHT22;65088;52.352;4.846;2023-02-05T04:44:28;7.50;82.60
76269;DHT22;65088;52.352;4.846;2023-02-05T04:47:00;7.50;82.60
76269;DHT22;65088;52.352;4.846;2023-02-05T04:49:31;7.40;82.80
76269;DHT22;65088;52.352;4.846;2023-02-05T04:52:01;7.40;82.80
76269;DHT22;65088;52.352;4.846;2023-02-05T04:54:30;7.30;82.80
76269;DHT22;65088;52.352;4.846;2023-02-05T04:57:01;7.30;82.80
76269;DHT22;65088;52.352;4.846;2023-02-05T04:59:30;7.20;82.90
76269;DHT22;65088;52.352;4.846;2023-02-05T05:02:02;7.10;82.90
76269;DHT22;65088;52.352;4.846;2023-02-05T05:04:31;7.10;82.60
76269;DHT22;65088;52.352;4.846;2023-02-05T05:07:00;7.10;82.60
76269;DHT22;65088;52.352;4.846;2023-02-05T05:09:30;7.00;82.40
76269;DHT22;65088;52.352;4.846;2023-02-05T05:11:59;7.00;81.90
76269;DHT22;65088;52.352;4.846;2023-02-05T05:14:28;6.90;81.60
76269;DHT22;65088;52.352;4.846;2023-02-05T05:16:58;6.80;81.80
76269;DHT22;65088;52.352;4.846;2023-02-05T05:19:29;6.70;81.90
76269;DHT22;65088;52.352;4.846;2023-02-05T05:21:59;6.70;81.90
76269;DHT22;65088;52.352;4.846;2023-02-05T05:24:28;6.70;81.80
76269;DHT22;65088;52.352;4.846;2023-02-05T05:26:58;6.70;81.90
76269;DHT22;65088;52.352;4.846;2023-02-05T05:29:27;6.60;81.90
76269;DHT22;65088;52.352;4.846;2023-02-05T05:31:57;6.60;81.90
76269;DHT22;65088;52.352;4.846;2023-02-05T05:34:28;6.60;81.80
76269;DHT22;65088;52.352;4.846;2023-02-05T05:36:58;6.60;81.70
76269;DHT22;65088;52.352;4.846;2023-02-05T05:39:27;6.60;81.60
76269;DHT22;65088;52.352;4.846;2023-02-05T05:42:09;6.60;81.60
76269;DHT22;65088;52.352;4.846;2023-02-05T05:44:51;6.60;81.60
76269;DHT22;65088;52.352;4.846;2023-02-05T05:47:21;6.60;81.10
76269;DHT22;65088;52.352;4.846;2023-02-05T05:49:52;6.60;81.10
76269;DHT22;65088;52.352;4.846;2023-02-05T05:52:22;6.60;81.40
76269;DHT22;65088;52.352;4.846;2023-02-05T05:54:51;6.60;81.20
76269;DHT22;65088;52.352;4.846;2023-02-05T05:57:20;6.60;80.70
76269;DHT22;65088;52.352;4.846;2023-02-05T05:59:49;6.60;80.50
76269;DHT22;65088;52.352;4.846;2023-02-05T06:02:19;6.60;80.70
76269;DHT22;65088;52.352;4.846;2023-02-05T06:04:49;6.60;81.10
76269;DHT22;65088;52.352;4.846;2023-02-05T06:07:20;6.60;80.70
76269;DHT22;65088;52.352;4.846;2023-02-05T06:09:50;6.60;80.90
76269;DHT22;65088;52.352;4.846;2023-02-05T06:12:19;6.60;80.70
76269;DHT22;65088;52.352;4.846;2023-02-05T06:14:48;6.60;80.80
76269;DHT22;65088;52.352;4.846;2023-02-05T06:17:18;6.60;80.80
76269;DHT22;65088;52.352;4.846;2023-02-05T06:19:47;6.50;81.00
76269;DHT22;65088;52.352;4.846;2023-02-05T06:22:22;6.60;81.10
76269;DHT22;65088;52.352;4.846;2023-02-05T06:24:51;6.50;81.20
76269;DHT22;65088;52.352;4.846;2023-02-05T06:27:20;6.60;81.10
76269;DHT22;65088;52.352;4.846;2023-02-05T06:29:50;6.60;81.10
76269;DHT22;65088;52.352;4.846;2023-02-05T06:32:19;6.60;80.40
76269;DHT22;65088;52.352;4.846;2023-02-05T06:34:49;6.60;80.50
76269;DHT22;65088;52.352;4.846;2023-02-05T06:37:20;6.70;80.10
76269;DHT22;65088;52.352;4.846;2023-02-05T06:39:50;6.70;79.20
76269;DHT22;65088;52.352;4.846;2023-02-05T06:42:20;6.70;79.30
76269;DHT22;65088;52.352;4.846;2023-02-05T06:44:50;6.70;79.20
76269;DHT22;65088;52.352;4.846;2023-02-05T06:47:19;6.60;78.90
76269;DHT22;65088;52.352;4.846;2023-02-05T06:49:48;6.60;78.80
76269;DHT22;65088;52.352;4.846;2023-02-05T06:52:18;6.60;78.70
76269;DHT22;65088;52.352;4.846;2023-02-05T06:54:50;6.60;78.40
76269;DHT22;65088;52.352;4.846;2023-02-05T06:57:19;6.70;78.10
76269;DHT22;65088;52.352;4.846;2023-02-05T06:59:48;6.70;78.10
76269;DHT22;65088;52.352;4.846;2023-02-05T07:02:19;6.70;78.00
76269;DHT22;65088;52.352;4.846;2023-02-05T07:04:48;6.80;77.80
76269;DHT22;65088;52.352;4.846;2023-02-05T07:07:18;6.80;77.30
76269;DHT22;65088;52.352;4.846;2023-02-05T07:09:49;6.80;77.20
76269;DHT22;65088;52.352;4.846;2023-02-05T07:12:19;6.80;77.30
76269;DHT22;65088;52.352;4.846;2023-02-05T07:14:48;6.70;77.50
76269;DHT22;65088;52.352;4.846;2023-02-05T07:17:17;6.70;77.80
76269;DHT22;65088;52.352;4.846;2023-02-05T07:19:47;6.60;77.70
76269;DHT22;65088;52.352;4.846;2023-02-05T07:22:16;6.50;77.90
76269;DHT22;65088;52.352;4.846;2023-02-05T07:24:45;6.40;77.90
76269;DHT22;65088;52.352;4.846;2023-02-05T07:27:17;6.30;78.00
76269;DHT22;65088;52.352;4.846;2023-02-05T07:29:47;6.20;78.40
76269;DHT22;65088;52.352;4.846;2023-02-05T07:32:16;6.20;78.70
76269;DHT22;65088;52.352;4.846;2023-02-05T07:34:45;6.20;78.90
76269;DHT22;65088;52.352;4.846;2023-02-05T07:37:14;6.10;79.10
76269;DHT22;65088;52.352;4.846;2023-02-05T07:39:44;6.20;79.20
76269;DHT22;65088;52.352;4.846;2023-02-05T07:42:13;6.30;79.20
76269;DHT22;65088;52.352;4.846;2023-02-05T07:44:52;6.40;79.10
76269;DHT22;65088;52.352;4.846;2023-02-05T07:47:21;6.40;78.90
76269;DHT22;65088;52.352;4.846;2023-02-05T07:49:50;6.50;78.80
76269;DHT22;65088;52.352;4.846;2023-02-05T07:52:20;6.50;78.50
76269;DHT22;65088;52.352;4.846;2023-02-05T07:54:49;6.60;78.30
76269;DHT22;65088;52.352;4.846;2023-02-05T07:57:19;6.60;78.30
76269;DHT22;65088;52.352;4.846;2023-02-05T07:59:51;6.60;78.20
76269;DHT22;65088;52.352;4.846;2023-02-05T08:02:20;6.60;78.00
76269;DHT22;65088;52.352;4.846;2023-02-05T08:04:49;6.50;77.90
76269;DHT22;65088;52.352;4.846;2023-02-05T08:07:19;6.50;77.80
76269;DHT22;65088;52.352;4.846;2023-02-05T08:09:48;6.60;78.00
76269;DHT22;65088;52.352;4.846;2023-02-05T08:12:18;6.80;77.70
76269;DHT22;65088;52.352;4.846;2023-02-05T08:14:47;6.90;77.30
76269;DHT22;65088;52.352;4.846;2023-02-05T08:17:20;7.00;77.00
76269;DHT22;65088;52.352;4.846;2023-02-05T08:19:49;7.10;76.90
76269;DHT22;65088;52.352;4.846;2023-02-05T08:22:19;7.20;76.40
76269;DHT22;65088;52.352;4.846;2023-02-05T08:24:48;7.20;75.90
76269;DHT22;65088;52.352;4.846;2023-02-05T08:27:17;7.10;76.00
76269;DHT22;65088;52.352;4.846;2023-02-05T08:29:47;7.10;76.10
76269;DHT22;65088;52.352;4.846;2023-02-05T08:32:16;7.10;75.40
76269;DHT22;65088;52.352;4.846;2023-02-05T08:34:49;7.20;75.40
76269;DHT22;65088;52.352;4.846;2023-02-05T08:37:18;7.20;75.10
76269;DHT22;65088;52.352;4.846;2023-02-05T08:39:47;7.30;74.90
76269;DHT22;65088;52.352;4.846;2023-02-05T08:42:17;7.30;74.60
76269;DHT22;65088;52.352;4.846;2023-02-05T08:44:47;7.40;74.30
76269;DHT22;65088;52.352;4.846;2023-02-05T08:47:18;7.50;74.10
76269;DHT22;65088;52.352;4.846;2023-02-05T08:49:50;7.50;74.00
76269;DHT22;65088;52.352;4.846;2023-02-05T08:52:19;7.70;73.90
76269;DHT22;65088;52.352;4.846;2023-02-05T08:54:49;7.80;73.40
76269;DHT22;65088;52.352;4.846;2023-02-05T08:57:18;8.00;72.90
76269;DHT22;65088;52.352;4.846;2023-02-05T08:59:47;8.10;72.50
76269;DHT22;65088;52.352;4.846;2023-02-05T09:02:18;8.20;71.80
76269;DHT22;65088;52.352;4.846;2023-02-05T09:04:50;8.30;71.60
76269;DHT22;65088;52.352;4.846;2023-02-05T09:07:20;8.30;71.50
76269;DHT22;65088;52.352;4.846;2023-02-05T09:09:49;8.30;71.50
76269;DHT22;65088;52.352;4.846;2023-02-05T09:12:19;8.40;71.00
76269;DHT22;65088;52.352;4.846;2023-02-05T09:14:48;8.40;71.10
76269;DHT22;65088;52.352;4.846;2023-02-05T09:17:17;8.40;70.90
76269;DHT22;65088;52.352;4.846;2023-02-05T09:19:47;8.40;70.80
76269;DHT22;65088;52.352;4.846;2023-02-05T09:22:18;8.40;70.90
76269;DHT22;65088;52.352;4.846;2023-02-05T09:24:48;8.50;71.00
76269;DHT22;65088;52.352;4.846;2023-02-05T09:27:17;8.50;70.40
76269;DHT22;65088;52.352;4.846;2023-02-05T09:29:47;8.60;70.40
76269;DHT22;65088;52.352;4.846;2023-02-05T09:32:16;8.60;70.30
76269;DHT22;65088;52.352;4.846;2023-02-05T09:34:45;8.70;69.90
76269;DHT22;65088;52.352;4.846;2023-02-05T09:37:15;8.70;70.10
76269;DHT22;65088;52.352;4.846;2023-02-05T09:39:47;8.70;69.70
76269;DHT22;65088;52.352;4.846;2023-02-05T09:42:26;8.70;69.80
76269;DHT22;65088;52.352;4.846;2023-02-05T09:45:10;8.70;69.40
76269;DHT22;65088;52.352;4.846;2023-02-05T09:47:48;8.70;69.40
76269;DHT22;65088;52.352;4.846;2023-02-05T09:50:22;8.80;69.20
76269;DHT22;65088;52.352;4.846;2023-02-05T09:52:59;8.80;68.90
76269;DHT22;65088;52.352;4.846;2023-02-05T09:55:37;8.80;68.90
76269;DHT22;65088;52.352;4.846;2023-02-05T09:58:13;8.80;68.60
76269;DHT22;65088;52.352;4.846;2023-02-05T10:00:45;8.80;68.30
76269;DHT22;65088;52.352;4.846;2023-02-05T10:03:22;8.80;68.60
76269;DHT22;65088;52.352;4.846;2023-02-05T10:06:06;8.80;68.60
76269;DHT22;65088;52.352;4.846;2023-02-05T10:08:44;8.90;68.60
76269;DHT22;65088;52.352;4.846;2023-02-05T10:11:29;9.00;68.40
76269;DHT22;65088;52.352;4.846;2023-02-05T10:14:07;9.10;68.20
76269;DHT22;65088;52.352;4.846;2023-02-05T10:16:47;9.30;68.10
76269;DHT22;65088;52.352;4.846;2023-02-05T10:19:41;9.30;68.00
76269;DHT22;65088;52.352;4.846;2023-02-05T10:22:18;9.40;68.10
76269;DHT22;65088;52.352;4.846;2023-02-05T10:25:03;9.40;67.90
76269;DHT22;65088;52.352;4.846;2023-02-05T10:27:42;9.50;67.70
76269;DHT22;65088;52.352;4.846;2023-02-05T10:30:21;9.60;67.30
76269;DHT22;65088;52.352;4.846;2023-02-05T10:32:55;9.60;66.90
76269;DHT22;65088;52.352;4.846;2023-02-05T10:35:32;9.50;66.70
76269;DHT22;65088;52.352;4.846;2023-02-05T10:38:11;9.30;66.90
76269;DHT22;65088;52.352;4.846;2023-02-05T10:40:43;9.10;67.70
76269;DHT22;65088;52.352;4.846;2023-02-05T10:43:21;9.10;67.90
76269;DHT22;65088;52.352;4.846;2023-02-05T10:45:55;9.20;67.80
76269;DHT22;65088;52.352;4.846;2023-02-05T10:48:39;9.20;67.60
76269;DHT22;65088;52.352;4.846;2023-02-05T10:51:11;9.30;67.60
76269;DHT22;65088;52.352;4.846;2023-02-05T10:53:43;9.30;67.50
76269;DHT22;65088;52.352;4.846;2023-02-05T10:56:16;9.40;67.40
76269;DHT22;65088;52.352;4.846;2023-02-05T10:58:50;9.40;67.00
76269;DHT22;65088;52.352;4.846;2023-02-05T11:01:23;9.40;66.70
76269;DHT22;65088;52.352;4.846;2023-02-05T11:03:57;9.40;66.30
76269;DHT22;65088;52.352;4.846;2023-02-05T11:06:30;9.30;66.30
76269;DHT22;65088;52.352;4.846;2023-02-05T11:09:00;9.20;66.50
76269;DHT22;65088;52.352;4.846;2023-02-05T11:11:30;9.30;66.70
76269;DHT22;65088;52.352;4.846;2023-02-05T11:14:05;9.40;66.30
76269;DHT22;65088;52.352;4.846;2023-02-05T11:16:40;9.40;66.60
76269;DHT22;65088;52.352;4.846;2023-02-05T11:19:18;9.50;66.30
76269;DHT22;65088;52.352;4.846;2023-02-05T11:21:52;9.40;66.00
76269;DHT22;65088;52.352;4.846;2023-02-05T11:24:27;9.30;66.00
76269;DHT22;65088;52.352;4.846;2023-02-05T11:27:22;9.20;65.70
76269;DHT22;65088;52.352;4.846;2023-02-05T11:29:57;9.20;66.00
76269;DHT22;65088;52.352;4.846;2023-02-05T11:32:33;9.40;65.90
76269;DHT22;65088;52.352;4.846;2023-02-05T11:35:24;9.50;65.60
76269;DHT22;65088;52.352;4.846;2023-02-05T11:37:59;9.60;65.10
76269;DHT22;65088;52.352;4.846;2023-02-05T11:40:30;9.50;65.10
76269;DHT22;65088;52.352;4.846;2023-02-05T11:43:02;9.60;65.10
76269;DHT22;65088;52.352;4.846;2023-02-05T11:45:37;9.70;64.70
76269;DHT22;65088;52.352;4.846;2023-02-05T11:48:22;9.90;64.70
76269;DHT22;65088;52.352;4.846;2023-02-05T11:50:53;10.40;64.10
76269;DHT22;65088;52.352;4.846;2023-02-05T11:53:22;10.50;63.90
76269;DHT22;65088;52.352;4.846;2023-02-05T11:55:54;10.70;63.70
76269;DHT22;65088;52.352;4.846;2023-02-05T11:58:26;10.80;63.10
76269;DHT22;65088;52.352;4.846;2023-02-05T12:01:00;10.90;62.20
76269;DHT22;65088;52.352;4.846;2023-02-05T12:03:32;11.10;61.70
76269;DHT22;65088;52.352;4.846;2023-02-05T12:06:13;11.20;62.10
76269;DHT22;65088;52.352;4.846;2023-02-05T12:08:47;11.40;61.50
76269;DHT22;65088;52.352;4.846;2023-02-05T12:11:26;11.50;61.50
76269;DHT22;65088;52.352;4.846;2023-02-05T12:14:03;11.80;61.10
76269;DHT22;65088;52.352;4.846;2023-02-05T12:16:52;12.10;59.60
76269;DHT22;65088;52.352;4.846;2023-02-05T12:19:28;12.10;59.40
76269;DHT22;65088;52.352;4.846;2023-02-05T12:22:05;11.90;59.50
76269;DHT22;65088;52.352;4.846;2023-02-05T12:24:55;12.20;59.80
76269;DHT22;65088;52.352;4.846;2023-02-05T12:27:36;12.20;59.40
76269;DHT22;65088;52.352;4.846;2023-02-05T12:30:23;12.20;59.10
76269;DHT22;65088;52.352;4.846;2023-02-05T12:33:15;12.30;59.00
76269;DHT22;65088;52.352;4.846;2023-02-05T12:35:57;11.90;59.20
76269;DHT22;65088;52.352;4.846;2023-02-05T12:38:41;11.70;59.90
76269;DHT22;65088;52.352;4.846;2023-02-05T12:41:24;12.00;59.80
76269;DHT22;65088;52.352;4.846;2023-02-05T12:44:06;11.70;60.00
76269;DHT22;65088;52.352;4.846;2023-02-05T12:46:48;12.10;60.20
76269;DHT22;65088;52.352;4.846;2023-02-05T12:49:38;12.10;59.30
76269;DHT22;65088;52.352;4.846;2023-02-05T12:52:20;12.10;59.90
76269;DHT22;65088;52.352;4.846;2023-02-05T12:55:02;11.90;59.80
76269;DHT22;65088;52.352;4.846;2023-02-05T12:57:41;11.60;60.00
76269;DHT22;65088;52.352;4.846;2023-02-05T13:00:16;11.30;60.50
76269;DHT22;65088;52.352;4.846;2023-02-05T13:02:53;11.10;61.10
76269;DHT22;65088;52.352;4.846;2023-02-05T13:05:30;11.10;61.70
76269;DHT22;65088;52.352;4.846;2023-02-05T13:08:05;11.40;60.80
76269;DHT22;65088;52.352;4.846;2023-02-05T13:10:42;11.30;60.70
76269;DHT22;65088;52.352;4.846;2023-02-05T13:13:16;11.10;60.80
76269;DHT22;65088;52.352;4.846;2023-02-05T13:15:55;10.90;61.10
76269;DHT22;65088;52.352;4.846;2023-02-05T13:18:29;10.80;61.50
76269;DHT22;65088;52.352;4.846;2023-02-05T13:21:04;10.70;61.40
76269;DHT22;65088;52.352;4.846;2023-02-05T13:23:47;10.70;61.70
76269;DHT22;65088;52.352;4.846;2023-02-05T13:26:33;11.10;60.90
76269;DHT22;65088;52.352;4.846;2023-02-05T13:29:16;11.10;60.60
76269;DHT22;65088;52.352;4.846;2023-02-05T13:31:48;10.80;60.50
76269;DHT22;65088;52.352;4.846;2023-02-05T13:34:20;10.60;61.10
76269;DHT22;65088;52.352;4.846;2023-02-05T13:37:28;10.60;61.40
76269;DHT22;65088;52.352;4.846;2023-02-05T13:40:24;10.60;61.60
76269;DHT22;65088;52.352;4.846;2023-02-05T13:43:41;10.80;61.60
76269;DHT22;65088;52.352;4.846;2023-02-05T13:46:30;10.90;61.40
76269;DHT22;65088;52.352;4.846;2023-02-05T13:52:09;10.70;61.60
76269;DHT22;65088;52.352;4.846;2023-02-05T13:55:10;10.60;62.00
76269;DHT22;65088;52.352;4.846;2023-02-05T13:58:11;10.60;62.00
76269;DHT22;65088;52.352;4.846;2023-02-05T14:00:54;10.70;61.50
76269;DHT22;65088;52.352;4.846;2023-02-05T14:03:28;10.50;61.50
76269;DHT22;65088;52.352;4.846;2023-02-05T14:06:12;10.40;62.10
76269;DHT22;65088;52.352;4.846;2023-02-05T14:08:42;10.30;62.00
76269;DHT22;65088;52.352;4.846;2023-02-05T14:11:15;10.20;62.30
76269;DHT22;65088;52.352;4.846;2023-02-05T14:14:17;10.10;62.50
76269;DHT22;65088;52.352;4.846;2023-02-05T14:16:48;10.00;62.80
76269;DHT22;65088;52.352;4.846;2023-02-05T14:19:20;9.90;63.40
76269;DHT22;65088;52.352;4.846;2023-02-05T14:22:00;9.90;63.10
76269;DHT22;65088;52.352;4.846;2023-02-05T14:24:49;10.00;63.40
76269;DHT22;65088;52.352;4.846;2023-02-05T14:27:46;10.00;63.40
76269;DHT22;65088;52.352;4.846;2023-02-05T14:30:45;10.00;63.20
76269;DHT22;65088;52.352;4.846;2023-02-05T14:33:34;9.80;63.80
76269;DHT22;65088;52.352;4.846;2023-02-05T14:36:31;9.80;63.80
76269;DHT22;65088;52.352;4.846;2023-02-05T14:39:06;9.80;64.00
76269;DHT22;65088;52.352;4.846;2023-02-05T14:41:50;9.80;63.90
76269;DHT22;65088;52.352;4.846;2023-02-05T14:44:28;9.80;64.00
76269;DHT22;65088;52.352;4.846;2023-02-05T14:47:01;9.90;64.10
76269;DHT22;65088;52.352;4.846;2023-02-05T14:49:39;9.90;64.20
76269;DHT22;65088;52.352;4.846;2023-02-05T14:52:23;10.10;64.30
76269;DHT22;65088;52.352;4.846;2023-02-05T14:54:55;10.10;63.90
76269;DHT22;65088;52.352;4.846;2023-02-05T14:57:32;10.20;64.10
76269;DHT22;65088;52.352;4.846;2023-02-05T15:00:31;10.30;63.60
76269;DHT22;65088;52.352;4.846;2023-02-05T15:03:22;10.20;63.60
76269;DHT22;65088;52.352;4.846;2023-02-05T15:05:59;10.00;63.90
76269;DHT22;65088;52.352;4.846;2023-02-05T15:08:49;10.00;64.20
76269;DHT22;65088;52.352;4.846;2023-02-05T15:11:26;9.90;64.30
76269;DHT22;65088;52.352;4.846;2023-02-05T15:14:24;9.90;64.30
76269;DHT22;65088;52.352;4.846;2023-02-05T15:20:10;9.60;64.80
76269;DHT22;65088;52.352;4.846;2023-02-05T15:22:46;9.60;65.00
76269;DHT22;65088;52.352;4.846;2023-02-05T15:25:36;9.50;65.30
76269;DHT22;65088;52.352;4.846;2023-02-05T15:28:19;9.30;65.50
76269;DHT22;65088;52.352;4.846;2023-02-05T15:30:55;9.10;65.80
76269;DHT22;65088;52.352;4.846;2023-02-05T15:33:33;8.90;66.00
76269;DHT22;65088;52.352;4.846;2023-02-05T15:36:11;8.70;66.30
76269;DHT22;65088;52.352;4.846;2023-02-05T15:38:47;8.60;66.60
76269;DHT22;65088;52.352;4.846;2023-02-05T15:41:19;8.50;67.10
76269;DHT22;65088;52.352;4.846;2023-02-05T15:44:00;8.60;67.10
76269;DHT22;65088;52.352;4.846;2023-02-05T15:46:32;8.60;67.20
76269;DHT22;65088;52.352;4.846;2023-02-05T15:49:04;8.40;67.40
76269;DHT22;65088;52.352;4.846;2023-02-05T15:51:36;8.30;67.70
76269;DHT22;65088;52.352;4.846;2023-02-05T15:54:07;8.30;67.90
76269;DHT22;65088;52.352;4.846;2023-02-05T15:56:37;8.20;68.20
76269;DHT22;65088;52.352;4.846;2023-02-05T15:59:12;8.10;68.50
76269;DHT22;65088;52.352;4.846;2023-02-05T16:01:46;8.00;68.80
76269;DHT22;65088;52.352;4.846;2023-02-05T16:04:23;8.00;69.00
76269;DHT22;65088;52.352;4.846;2023-02-05T16:06:57;7.90;69.20
76269;DHT22;65088;52.352;4.846;2023-02-05T16:09:29;7.80;69.40
76269;DHT22;65088;52.352;4.846;2023-02-05T16:12:09;7.70;69.70
76269;DHT22;65088;52.352;4.846;2023-02-05T16:14:39;7.70;69.80
76269;DHT22;65088;52.352;4.846;2023-02-05T16:17:11;7.60;70.10
76269;DHT22;65088;52.352;4.846;2023-02-05T16:19:46;7.60;70.10
76269;DHT22;65088;52.352;4.846;2023-02-05T16:22:27;7.50;70.40
76269;DHT22;65088;52.352;4.846;2023-02-05T16:25:03;7.40;70.40
76269;DHT22;65088;52.352;4.846;2023-02-05T16:27:39;7.30;70.70
76269;DHT22;65088;52.352;4.846;2023-02-05T16:30:16;7.30;71.10
76269;DHT22;65088;52.352;4.846;2023-02-05T16:32:47;7.20;71.20
76269;DHT22;65088;52.352;4.846;2023-02-05T16:35:22;7.30;71.30